sensor_id;sensor_type;location;lat;lon;timestamp;P1;durP1;ratioP1;P2;durP2;ratioP2
42770;SDS011;28426;42.872;25.314;2023-05-07T00:00:43;8.93;;;5.00;;
42770;SDS011;28426;42.872;25.314;2023-05-07T00:03:14;9.10;;;4.85;;
42770;SDS011;28426;42.872;25.314;2023-05-07T00:05:46;9.90;;;4.60;;
42770;SDS011;28426;42.872;25.314;2023-05-07T00:08:17;8.02;;;4.40;;
42770;SDS011;28426;42.872;25.314;2023-05-07T00:10:47;13.02;;;4.90;;
42770;SDS011;28426;42.872;25.314;2023-05-07T00:13:18;6.93;;;4.80;;
42770;SDS011;28426;42.872;25.314;2023-05-07T00:15:52;9.45;;;4.32;;
42770;SDS011;28426;42.872;25.314;2023-05-07T00:18:23;7.78;;;4.60;;
42770;SDS011;28426;42.872;25.314;2023-05-07T00:20:53;8.73;;;4.63;;
42770;SDS011;28426;42.872;25.314;2023-05-07T00:23:24;8.50;;;4.47;;
42770;SDS011;28426;42.872;25.314;2023-05-07T00:25:55;7.90;;;4.80;;
42770;SDS011;28426;42.872;25.314;2023-05-07T00:28:26;7.70;;;4.88;;
42770;SDS011;28426;42.872;25.314;2023-05-07T00:30:59;10.98;;;4.95;;
42770;SDS011;28426;42.872;25.314;2023-05-07T00:33:30;10.52;;;4.93;;
42770;SDS011;28426;42.872;25.314;2023-05-07T00:36:01;8.30;;;5.32;;
42770;SDS011;28426;42.872;25.314;2023-05-07T00:38:33;7.28;;;4.68;;
42770;SDS011;28426;42.872;25.314;2023-05-07T00:41:03;7.07;;;4.65;;
42770;SDS011;28426;42.872;25.314;2023-05-07T00:43:34;7.85;;;4.32;;
42770;SDS011;28426;42.872;25.314;2023-05-07T00:46:08;9.75;;;5.25;;
42770;SDS011;28426;42.872;25.314;2023-05-07T00:48:39;11.23;;;4.82;;
42770;SDS011;28426;42.872;25.314;2023-05-07T00:51:10;12.75;;;5.20;;
42770;SDS011;28426;42.872;25.314;2023-05-07T00:53:42;11.65;;;4.90;;
42770;SDS011;28426;42.872;25.314;2023-05-07T00:56:13;9.75;;;4.53;;
42770;SDS011;28426;42.872;25.314;2023-05-07T00:58:44;7.03;;;4.13;;
42770;SDS011;28426;42.872;25.314;2023-05-07T01:01:17;6.45;;;4.30;;
42770;SDS011;28426;42.872;25.314;2023-05-07T01:03:48;6.30;;;4.20;;
42770;SDS011;28426;42.872;25.314;2023-05-07T01:06:19;7.00;;;4.50;;
42770;SDS011;28426;42.872;25.314;2023-05-07T01:11:26;7.85;;;4.40;;
42770;SDS011;28426;42.872;25.314;2023-05-07T01:13:57;7.22;;;4.40;;
42770;SDS011;28426;42.872;25.314;2023-05-07T01:16:32;7.15;;;4.10;;
42770;SDS011;28426;42.872;25.314;2023-05-07T01:19:03;6.70;;;4.63;;
42770;SDS011;28426;42.872;25.314;2023-05-07T01:21:34;8.65;;;4.30;;
42770;SDS011;28426;42.872;25.314;2023-05-07T01:24:10;14.85;;;4.72;;
42770;SDS011;28426;42.872;25.314;2023-05-07T01:26:42;8.63;;;4.57;;
42770;SDS011;28426;42.872;25.314;2023-05-07T01:29:16;8.95;;;4.72;;
42770;SDS011;28426;42.872;25.314;2023-05-07T01:31:47;6.82;;;3.90;;
42770;SDS011;28426;42.872;25.314;2023-05-07T01:34:20;6.82;;;4.05;;
42770;SDS011;28426;42.872;25.314;2023-05-07T01:36:53;7.25;;;4.22;;
42770;SDS011;28426;42.872;25.314;2023-05-07T01:39:28;7.95;;;4.70;;
42770;SDS011;28426;42.872;25.314;2023-05-07T01:42:00;6.75;;;4.43;;
42770;SDS011;28426;42.872;25.314;2023-05-07T01:44:31;10.15;;;4.53;;
42770;SDS011;28426;42.872;25.314;2023-05-07T01:47:01;9.70;;;4.75;;
42770;SDS011;28426;42.872;25.314;2023-05-07T01:49:33;8.02;;;4.90;;
42770;SDS011;28426;42.872;25.314;2023-05-07T01:52:04;8.18;;;4.45;;
42770;SDS011;28426;42.872;25.314;2023-05-07T01:54:38;10.35;;;4.85;;
42770;SDS011;28426;42.872;25.314;2023-05-07T01:57:10;10.02;;;4.28;;
42770;SDS011;28426;42.872;25.314;2023-05-07T01:59:41;8.48;;;4.57;;
42770;SDS011;28426;42.872;25.314;2023-05-07T02:02:12;9.50;;;4.70;;
42770;SDS011;28426;42.872;25.314;2023-05-07T02:04:44;8.40;;;5.00;;
42770;SDS011;28426;42.872;25.314;2023-05-07T02:07:16;8.60;;;5.20;;
42770;SDS011;28426;42.872;25.314;2023-05-07T02:09:50;10.07;;;4.50;;
42770;SDS011;28426;42.872;25.314;2023-05-07T02:12:21;10.00;;;4.90;;
42770;SDS011;28426;42.872;25.314;2023-05-07T02:14:53;8.95;;;4.53;;
42770;SDS011;28426;42.872;25.314;2023-05-07T02:17:24;10.25;;;4.80;;
42770;SDS011;28426;42.872;25.314;2023-05-07T02:19:59;7.43;;;4.75;;
42770;SDS011;28426;42.872;25.314;2023-05-07T02:22:50;7.75;;;4.53;;
42770;SDS011;28426;42.872;25.314;2023-05-07T02:25:24;8.60;;;5.13;;
42770;SDS011;28426;42.872;25.314;2023-05-07T02:27:56;6.80;;;4.55;;
42770;SDS011;28426;42.872;25.314;2023-05-07T02:30:43;8.55;;;4.80;;
42770;SDS011;28426;42.872;25.314;2023-05-07T02:33:14;9.27;;;4.80;;
42770;SDS011;28426;42.872;25.314;2023-05-07T02:35:46;9.85;;;5.00;;
42770;SDS011;28426;42.872;25.314;2023-05-07T02:38:16;6.35;;;4.45;;
42770;SDS011;28426;42.872;25.314;2023-05-07T02:40:50;9.15;;;5.07;;
42770;SDS011;28426;42.872;25.314;2023-05-07T02:43:21;9.27;;;4.90;;
42770;SDS011;28426;42.872;25.314;2023-05-07T02:45:59;7.43;;;4.47;;
42770;SDS011;28426;42.872;25.314;2023-05-07T02:48:33;7.97;;;4.30;;
42770;SDS011;28426;42.872;25.314;2023-05-07T02:51:04;7.18;;;4.40;;
42770;SDS011;28426;42.872;25.314;2023-05-07T02:53:38;8.70;;;4.75;;
42770;SDS011;28426;42.872;25.314;2023-05-07T02:56:11;7.32;;;4.53;;
42770;SDS011;28426;42.872;25.314;2023-05-07T02:58:42;8.57;;;4.60;;
42770;SDS011;28426;42.872;25.314;2023-05-07T03:01:15;7.50;;;4.32;;
42770;SDS011;28426;42.872;25.314;2023-05-07T03:03:52;9.45;;;4.50;;
42770;SDS011;28426;42.872;25.314;2023-05-07T03:06:24;7.25;;;4.40;;
42770;SDS011;28426;42.872;25.314;2023-05-07T03:08:55;7.40;;;4.75;;
42770;SDS011;28426;42.872;25.314;2023-05-07T03:11:29;7.63;;;4.30;;
42770;SDS011;28426;42.872;25.314;2023-05-07T03:13:59;8.10;;;4.00;;
42770;SDS011;28426;42.872;25.314;2023-05-07T03:16:31;8.88;;;4.85;;
42770;SDS011;28426;42.872;25.314;2023-05-07T03:19:01;6.53;;;4.32;;
42770;SDS011;28426;42.872;25.314;2023-05-07T03:21:32;11.20;;;4.70;;
42770;SDS011;28426;42.872;25.314;2023-05-07T03:24:04;11.23;;;4.60;;
42770;SDS011;28426;42.872;25.314;2023-05-07T03:26:38;7.60;;;4.65;;
42770;SDS011;28426;42.872;25.314;2023-05-07T03:29:09;8.07;;;4.43;;
42770;SDS011;28426;42.872;25.314;2023-05-07T03:31:40;8.98;;;4.07;;
42770;SDS011;28426;42.872;25.314;2023-05-07T03:34:11;7.38;;;4.85;;
42770;SDS011;28426;42.872;25.314;2023-05-07T03:36:42;6.18;;;4.45;;
42770;SDS011;28426;42.872;25.314;2023-05-07T03:39:13;9.32;;;4.20;;
42770;SDS011;28426;42.872;25.314;2023-05-07T03:41:47;8.68;;;4.68;;
42770;SDS011;28426;42.872;25.314;2023-05-07T03:44:18;7.57;;;4.65;;
42770;SDS011;28426;42.872;25.314;2023-05-07T03:46:50;11.88;;;4.50;;
42770;SDS011;28426;42.872;25.314;2023-05-07T03:49:21;7.22;;;4.43;;
42770;SDS011;28426;42.872;25.314;2023-05-07T03:51:52;9.20;;;4.28;;
42770;SDS011;28426;42.872;25.314;2023-05-07T03:54:23;8.50;;;5.05;;
42770;SDS011;28426;42.872;25.314;2023-05-07T03:56:57;7.80;;;4.85;;
42770;SDS011;28426;42.872;25.314;2023-05-07T03:59:28;8.63;;;4.47;;
42770;SDS011;28426;42.872;25.314;2023-05-07T04:01:59;7.15;;;4.45;;
42770;SDS011;28426;42.872;25.314;2023-05-07T04:04:32;7.70;;;4.68;;
42770;SDS011;28426;42.872;25.314;2023-05-07T04:07:03;9.05;;;4.63;;
42770;SDS011;28426;42.872;25.314;2023-05-07T04:09:39;7.15;;;4.55;;
42770;SDS011;28426;42.872;25.314;2023-05-07T04:12:13;7.55;;;4.18;;
42770;SDS011;28426;42.872;25.314;2023-05-07T04:14:43;8.75;;;4.30;;
42770;SDS011;28426;42.872;25.314;2023-05-07T04:17:15;9.20;;;4.22;;
42770;SDS011;28426;42.872;25.314;2023-05-07T04:19:46;9.00;;;4.43;;
42770;SDS011;28426;42.872;25.314;2023-05-07T04:22:18;7.57;;;3.95;;
42770;SDS011;28426;42.872;25.314;2023-05-07T04:24:49;8.43;;;4.55;;
42770;SDS011;28426;42.872;25.314;2023-05-07T04:27:22;6.88;;;4.18;;
42770;SDS011;28426;42.872;25.314;2023-05-07T04:29:54;7.22;;;4.18;;
42770;SDS011;28426;42.872;25.314;2023-05-07T04:32:25;8.00;;;4.82;;
42770;SDS011;28426;42.872;25.314;2023-05-07T04:34:56;9.15;;;4.38;;
42770;SDS011;28426;42.872;25.314;2023-05-07T04:37:29;7.03;;;4.18;;
42770;SDS011;28426;42.872;25.314;2023-05-07T04:40:02;6.88;;;4.03;;
42770;SDS011;28426;42.872;25.314;2023-05-07T04:42:37;8.82;;;4.97;;
42770;SDS011;28426;42.872;25.314;2023-05-07T04:45:09;10.47;;;4.70;;
42770;SDS011;28426;42.872;25.314;2023-05-07T04:47:43;6.78;;;4.43;;
42770;SDS011;28426;42.872;25.314;2023-05-07T04:50:14;9.55;;;4.10;;
42770;SDS011;28426;42.872;25.314;2023-05-07T04:52:48;8.07;;;4.20;;
42770;SDS011;28426;42.872;25.314;2023-05-07T04:55:19;8.95;;;4.20;;
42770;SDS011;28426;42.872;25.314;2023-05-07T04:57:52;8.18;;;4.00;;
42770;SDS011;28426;42.872;25.314;2023-05-07T05:00:24;9.40;;;4.68;;
42770;SDS011;28426;42.872;25.314;2023-05-07T05:02:56;6.07;;;3.88;;
42770;SDS011;28426;42.872;25.314;2023-05-07T05:05:28;10.13;;;3.88;;
42770;SDS011;28426;42.872;25.314;2023-05-07T05:08:00;9.45;;;4.60;;
42770;SDS011;28426;42.872;25.314;2023-05-07T05:10:31;6.28;;;3.50;;
42770;SDS011;28426;42.872;25.314;2023-05-07T05:13:05;8.23;;;3.25;;
42770;SDS011;28426;42.872;25.314;2023-05-07T05:15:36;6.78;;;3.10;;
42770;SDS011;28426;42.872;25.314;2023-05-07T05:18:07;5.53;;;2.97;;
42770;SDS011;28426;42.872;25.314;2023-05-07T05:20:39;5.82;;;3.22;;
42770;SDS011;28426;42.872;25.314;2023-05-07T05:23:11;6.75;;;3.00;;
42770;SDS011;28426;42.872;25.314;2023-05-07T05:25:43;12.30;;;3.40;;
42770;SDS011;28426;42.872;25.314;2023-05-07T05:28:16;5.90;;;2.67;;
42770;SDS011;28426;42.872;25.314;2023-05-07T05:30:47;5.28;;;2.67;;
42770;SDS011;28426;42.872;25.314;2023-05-07T05:33:18;3.75;;;2.38;;
42770;SDS011;28426;42.872;25.314;2023-05-07T05:35:49;6.90;;;2.70;;
42770;SDS011;28426;42.872;25.314;2023-05-07T05:38:20;5.20;;;2.63;;
42770;SDS011;28426;42.872;25.314;2023-05-07T05:40:51;4.45;;;2.50;;
42770;SDS011;28426;42.872;25.314;2023-05-07T05:43:25;7.43;;;2.35;;
42770;SDS011;28426;42.872;25.314;2023-05-07T05:45:57;7.38;;;2.97;;
42770;SDS011;28426;42.872;25.314;2023-05-07T05:48:29;9.50;;;2.70;;
42770;SDS011;28426;42.872;25.314;2023-05-07T05:51:02;8.25;;;2.63;;
42770;SDS011;28426;42.872;25.314;2023-05-07T05:53:33;7.53;;;2.80;;
42770;SDS011;28426;42.872;25.314;2023-05-07T05:56:06;7.75;;;2.78;;
42770;SDS011;28426;42.872;25.314;2023-05-07T05:58:41;6.50;;;2.75;;
42770;SDS011;28426;42.872;25.314;2023-05-07T06:01:13;6.50;;;2.70;;
42770;SDS011;28426;42.872;25.314;2023-05-07T06:03:44;3.97;;;2.40;;
42770;SDS011;28426;42.872;25.314;2023-05-07T06:06:15;4.80;;;2.50;;
42770;SDS011;28426;42.872;25.314;2023-05-07T06:08:46;7.55;;;2.80;;
42770;SDS011;28426;42.872;25.314;2023-05-07T06:11:21;7.70;;;3.13;;
42770;SDS011;28426;42.872;25.314;2023-05-07T06:13:55;7.07;;;2.83;;
42770;SDS011;28426;42.872;25.314;2023-05-07T06:18:58;4.95;;;2.50;;
42770;SDS011;28426;42.872;25.314;2023-05-07T06:21:29;9.48;;;2.70;;
42770;SDS011;28426;42.872;25.314;2023-05-07T06:24:00;7.90;;;3.00;;
42770;SDS011;28426;42.872;25.314;2023-05-07T06:26:31;7.03;;;2.75;;
42770;SDS011;28426;42.872;25.314;2023-05-07T06:29:05;6.00;;;2.35;;
42770;SDS011;28426;42.872;25.314;2023-05-07T06:31:38;10.55;;;2.83;;
42770;SDS011;28426;42.872;25.314;2023-05-07T06:34:10;9.18;;;2.35;;
42770;SDS011;28426;42.872;25.314;2023-05-07T06:36:43;5.78;;;2.00;;
42770;SDS011;28426;42.872;25.314;2023-05-07T06:39:36;4.20;;;2.08;;
42770;SDS011;28426;42.872;25.314;2023-05-07T06:42:07;5.00;;;1.90;;
42770;SDS011;28426;42.872;25.314;2023-05-07T06:44:43;4.15;;;2.03;;
42770;SDS011;28426;42.872;25.314;2023-05-07T06:47:16;4.38;;;1.90;;
42770;SDS011;28426;42.872;25.314;2023-05-07T06:49:51;6.05;;;2.10;;
42770;SDS011;28426;42.872;25.314;2023-05-07T06:52:25;6.50;;;1.90;;
42770;SDS011;28426;42.872;25.314;2023-05-07T06:54:56;5.43;;;1.38;;
42770;SDS011;28426;42.872;25.314;2023-05-07T06:57:29;5.20;;;1.42;;
42770;SDS011;28426;42.872;25.314;2023-05-07T07:00:02;4.85;;;1.40;;
42770;SDS011;28426;42.872;25.314;2023-05-07T07:02:45;6.13;;;1.50;;
42770;SDS011;28426;42.872;25.314;2023-05-07T07:05:19;3.70;;;1.67;;
42770;SDS011;28426;42.872;25.314;2023-05-07T07:07:51;3.13;;;1.38;;
42770;SDS011;28426;42.872;25.314;2023-05-07T07:10:22;4.38;;;1.48;;
42770;SDS011;28426;42.872;25.314;2023-05-07T07:12:55;3.58;;;1.40;;
42770;SDS011;28426;42.872;25.314;2023-05-07T07:15:28;5.20;;;1.40;;
42770;SDS011;28426;42.872;25.314;2023-05-07T07:17:59;3.35;;;1.55;;
42770;SDS011;28426;42.872;25.314;2023-05-07T07:20:30;3.08;;;1.40;;
42770;SDS011;28426;42.872;25.314;2023-05-07T07:23:01;5.38;;;2.20;;
42770;SDS011;28426;42.872;25.314;2023-05-07T07:25:31;2.88;;;1.30;;
42770;SDS011;28426;42.872;25.314;2023-05-07T07:28:03;7.07;;;1.77;;
42770;SDS011;28426;42.872;25.314;2023-05-07T07:30:38;3.55;;;1.60;;
42770;SDS011;28426;42.872;25.314;2023-05-07T07:33:10;4.18;;;1.60;;
42770;SDS011;28426;42.872;25.314;2023-05-07T07:35:42;2.92;;;1.25;;
42770;SDS011;28426;42.872;25.314;2023-05-07T07:38:13;3.90;;;1.33;;
42770;SDS011;28426;42.872;25.314;2023-05-07T07:40:44;2.47;;;1.05;;
42770;SDS011;28426;42.872;25.314;2023-05-07T07:43:15;2.30;;;1.10;;
42770;SDS011;28426;42.872;25.314;2023-05-07T07:45:49;4.47;;;1.50;;
42770;SDS011;28426;42.872;25.314;2023-05-07T07:48:20;3.07;;;1.20;;
42770;SDS011;28426;42.872;25.314;2023-05-07T07:50:51;3.03;;;1.10;;
42770;SDS011;28426;42.872;25.314;2023-05-07T07:53:22;4.70;;;1.23;;
42770;SDS011;28426;42.872;25.314;2023-05-07T07:55:53;4.60;;;1.45;;
42770;SDS011;28426;42.872;25.314;2023-05-07T07:58:29;3.85;;;1.30;;
42770;SDS011;28426;42.872;25.314;2023-05-07T08:01:05;4.22;;;1.48;;
42770;SDS011;28426;42.872;25.314;2023-05-07T08:03:36;6.22;;;2.47;;
42770;SDS011;28426;42.872;25.314;2023-05-07T08:06:07;3.30;;;1.25;;
42770;SDS011;28426;42.872;25.314;2023-05-07T08:08:38;4.47;;;1.25;;
42770;SDS011;28426;42.872;25.314;2023-05-07T08:11:09;3.22;;;1.27;;
42770;SDS011;28426;42.872;25.314;2023-05-07T08:13:40;3.45;;;1.20;;
42770;SDS011;28426;42.872;25.314;2023-05-07T08:16:15;5.63;;;1.60;;
42770;SDS011;28426;42.872;25.314;2023-05-07T08:18:48;4.20;;;1.73;;
42770;SDS011;28426;42.872;25.314;2023-05-07T08:21:19;11.20;;;1.48;;
42770;SDS011;28426;42.872;25.314;2023-05-07T08:23:50;4.10;;;1.40;;
42770;SDS011;28426;42.872;25.314;2023-05-07T08:26:21;4.70;;;1.45;;
42770;SDS011;28426;42.872;25.314;2023-05-07T08:28:52;4.50;;;1.48;;
42770;SDS011;28426;42.872;25.314;2023-05-07T08:31:26;6.60;;;1.60;;
42770;SDS011;28426;42.872;25.314;2023-05-07T08:33:57;6.10;;;2.10;;
42770;SDS011;28426;42.872;25.314;2023-05-07T08:36:28;5.57;;;1.52;;
42770;SDS011;28426;42.872;25.314;2023-05-07T08:38:59;4.53;;;1.60;;
42770;SDS011;28426;42.872;25.314;2023-05-07T08:41:31;5.00;;;1.70;;
42770;SDS011;28426;42.872;25.314;2023-05-07T08:44:02;3.63;;;1.65;;
42770;SDS011;28426;42.872;25.314;2023-05-07T08:46:38;4.43;;;1.40;;
42770;SDS011;28426;42.872;25.314;2023-05-07T08:49:11;3.65;;;1.33;;
42770;SDS011;28426;42.872;25.314;2023-05-07T08:51:43;6.47;;;1.50;;
42770;SDS011;28426;42.872;25.314;2023-05-07T08:54:15;5.72;;;1.45;;
42770;SDS011;28426;42.872;25.314;2023-05-07T08:56:47;5.78;;;1.60;;
42770;SDS011;28426;42.872;25.314;2023-05-07T08:59:19;3.72;;;1.38;;
42770;SDS011;28426;42.872;25.314;2023-05-07T09:01:52;3.47;;;1.40;;
42770;SDS011;28426;42.872;25.314;2023-05-07T09:04:23;5.25;;;1.40;;
42770;SDS011;28426;42.872;25.314;2023-05-07T09:06:54;4.93;;;1.42;;
42770;SDS011;28426;42.872;25.314;2023-05-07T09:09:33;2.90;;;1.30;;
42770;SDS011;28426;42.872;25.314;2023-05-07T09:12:05;4.47;;;1.50;;
42770;SDS011;28426;42.872;25.314;2023-05-07T09:14:37;6.20;;;1.67;;
42770;SDS011;28426;42.872;25.314;2023-05-07T09:17:11;3.35;;;1.40;;
42770;SDS011;28426;42.872;25.314;2023-05-07T09:19:42;4.22;;;1.40;;
42770;SDS011;28426;42.872;25.314;2023-05-07T09:22:15;5.40;;;1.50;;
42770;SDS011;28426;42.872;25.314;2023-05-07T09:25:00;5.57;;;1.60;;
42770;SDS011;28426;42.872;25.314;2023-05-07T09:27:31;4.63;;;1.55;;
42770;SDS011;28426;42.872;25.314;2023-05-07T09:30:03;4.35;;;1.63;;
42770;SDS011;28426;42.872;25.314;2023-05-07T09:32:38;3.33;;;1.73;;
42770;SDS011;28426;42.872;25.314;2023-05-07T09:35:15;6.30;;;2.00;;
42770;SDS011;28426;42.872;25.314;2023-05-07T09:37:53;4.05;;;1.70;;
42770;SDS011;28426;42.872;25.314;2023-05-07T09:40:29;6.13;;;1.80;;
42770;SDS011;28426;42.872;25.314;2023-05-07T09:43:08;4.97;;;2.08;;
42770;SDS011;28426;42.872;25.314;2023-05-07T09:45:47;4.57;;;2.08;;
42770;SDS011;28426;42.872;25.314;2023-05-07T09:48:25;4.03;;;1.58;;
42770;SDS011;28426;42.872;25.314;2023-05-07T09:53:33;3.75;;;1.85;;
42770;SDS011;28426;42.872;25.314;2023-05-07T09:56:05;5.57;;;2.15;;
42770;SDS011;28426;42.872;25.314;2023-05-07T09:58:37;5.15;;;1.60;;
42770;SDS011;28426;42.872;25.314;2023-05-07T10:01:11;5.30;;;1.60;;
42770;SDS011;28426;42.872;25.314;2023-05-07T10:03:46;3.03;;;1.60;;
42770;SDS011;28426;42.872;25.314;2023-05-07T10:06:18;3.55;;;1.83;;
42770;SDS011;28426;42.872;25.314;2023-05-07T10:08:50;5.18;;;1.70;;
42770;SDS011;28426;42.872;25.314;2023-05-07T10:11:22;5.22;;;1.95;;
42770;SDS011;28426;42.872;25.314;2023-05-07T10:13:54;4.05;;;1.70;;
42770;SDS011;28426;42.872;25.314;2023-05-07T10:16:25;3.92;;;1.45;;
42770;SDS011;28426;42.872;25.314;2023-05-07T10:19:00;7.32;;;2.67;;
42770;SDS011;28426;42.872;25.314;2023-05-07T10:21:34;5.65;;;2.13;;
42770;SDS011;28426;42.872;25.314;2023-05-07T10:24:08;6.97;;;1.80;;
42770;SDS011;28426;42.872;25.314;2023-05-07T10:26:44;3.60;;;1.80;;
42770;SDS011;28426;42.872;25.314;2023-05-07T10:29:23;4.40;;;1.77;;
42770;SDS011;28426;42.872;25.314;2023-05-07T10:32:20;3.97;;;1.90;;
42770;SDS011;28426;42.872;25.314;2023-05-07T10:35:15;3.35;;;1.77;;
42770;SDS011;28426;42.872;25.314;2023-05-07T10:37:49;3.80;;;1.90;;
42770;SDS011;28426;42.872;25.314;2023-05-07T10:40:23;4.28;;;1.70;;
42770;SDS011;28426;42.872;25.314;2023-05-07T10:42:55;4.90;;;1.80;;
42770;SDS011;28426;42.872;25.314;2023-05-07T10:45:31;4.60;;;1.60;;
42770;SDS011;28426;42.872;25.314;2023-05-07T10:48:08;4.93;;;1.60;;
42770;SDS011;28426;42.872;25.314;2023-05-07T10:56:58;7.63;;;2.28;;
42770;SDS011;28426;42.872;25.314;2023-05-07T11:03:22;5.10;;;1.83;;
42770;SDS011;28426;42.872;25.314;2023-05-07T11:06:11;3.40;;;1.80;;
42770;SDS011;28426;42.872;25.314;2023-05-07T11:08:56;6.28;;;1.85;;
42770;SDS011;28426;42.872;25.314;2023-05-07T11:11:44;7.20;;;2.08;;
42770;SDS011;28426;42.872;25.314;2023-05-07T11:14:44;4.35;;;1.80;;
42770;SDS011;28426;42.872;25.314;2023-05-07T11:17:24;3.28;;;1.60;;
42770;SDS011;28426;42.872;25.314;2023-05-07T11:20:06;5.70;;;1.73;;
42770;SDS011;28426;42.872;25.314;2023-05-07T11:22:46;4.75;;;1.73;;
42770;SDS011;28426;42.872;25.314;2023-05-07T11:25:25;3.72;;;1.52;;
42770;SDS011;28426;42.872;25.314;2023-05-07T11:28:05;3.30;;;1.67;;
42770;SDS011;28426;42.872;25.314;2023-05-07T11:30:43;5.90;;;1.70;;
42770;SDS011;28426;42.872;25.314;2023-05-07T11:33:17;4.55;;;1.63;;
42770;SDS011;28426;42.872;25.314;2023-05-07T11:35:51;4.73;;;1.90;;
42770;SDS011;28426;42.872;25.314;2023-05-07T11:38:30;3.47;;;1.50;;
42770;SDS011;28426;42.872;25.314;2023-05-07T11:41:07;5.78;;;2.22;;
42770;SDS011;28426;42.872;25.314;2023-05-07T11:43:40;5.18;;;1.60;;
42770;SDS011;28426;42.872;25.314;2023-05-07T11:46:24;3.55;;;1.85;;
42770;SDS011;28426;42.872;25.314;2023-05-07T11:48:56;7.40;;;1.80;;
42770;SDS011;28426;42.872;25.314;2023-05-07T11:51:27;6.22;;;2.15;;
42770;SDS011;28426;42.872;25.314;2023-05-07T11:53:58;3.97;;;1.85;;
42770;SDS011;28426;42.872;25.314;2023-05-07T11:56:33;3.95;;;1.95;;
42770;SDS011;28426;42.872;25.314;2023-05-07T11:59:04;3.58;;;1.85;;
42770;SDS011;28426;42.872;25.314;2023-05-07T12:01:35;6.70;;;2.55;;
42770;SDS011;28426;42.872;25.314;2023-05-07T12:04:09;4.88;;;1.98;;
42770;SDS011;28426;42.872;25.314;2023-05-07T12:06:40;5.05;;;1.95;;
42770;SDS011;28426;42.872;25.314;2023-05-07T12:09:10;4.32;;;1.75;;
42770;SDS011;28426;42.872;25.314;2023-05-07T12:11:44;3.13;;;1.50;;
42770;SDS011;28426;42.872;25.314;2023-05-07T12:14:16;4.77;;;1.87;;
42770;SDS011;28426;42.872;25.314;2023-05-07T12:16:47;4.50;;;1.70;;
42770;SDS011;28426;42.872;25.314;2023-05-07T12:19:18;3.92;;;2.10;;
42770;SDS011;28426;42.872;25.314;2023-05-07T12:21:50;4.43;;;1.98;;
42770;SDS011;28426;42.872;25.314;2023-05-07T12:24:21;4.85;;;1.77;;
42770;SDS011;28426;42.872;25.314;2023-05-07T12:26:55;5.63;;;2.08;;
42770;SDS011;28426;42.872;25.314;2023-05-07T12:29:27;3.30;;;1.88;;
42770;SDS011;28426;42.872;25.314;2023-05-07T12:31:58;4.25;;;1.67;;
42770;SDS011;28426;42.872;25.314;2023-05-07T12:34:32;3.08;;;1.63;;
42770;SDS011;28426;42.872;25.314;2023-05-07T12:37:03;3.95;;;1.85;;
42770;SDS011;28426;42.872;25.314;2023-05-07T12:39:34;4.50;;;1.95;;
42770;SDS011;28426;42.872;25.314;2023-05-07T12:42:08;3.78;;;1.75;;
42770;SDS011;28426;42.872;25.314;2023-05-07T12:44:45;4.20;;;1.90;;
42770;SDS011;28426;42.872;25.314;2023-05-07T12:47:16;5.50;;;2.03;;
42770;SDS011;28426;42.872;25.314;2023-05-07T12:49:47;3.40;;;1.80;;
42770;SDS011;28426;42.872;25.314;2023-05-07T12:52:18;4.82;;;2.10;;
42770;SDS011;28426;42.872;25.314;2023-05-07T12:54:50;6.70;;;1.75;;
42770;SDS011;28426;42.872;25.314;2023-05-07T12:57:24;3.83;;;1.92;;
42770;SDS011;28426;42.872;25.314;2023-05-07T12:59:57;4.13;;;1.73;;
42770;SDS011;28426;42.872;25.314;2023-05-07T13:02:32;6.47;;;2.00;;
42770;SDS011;28426;42.872;25.314;2023-05-07T13:05:03;3.92;;;1.80;;
42770;SDS011;28426;42.872;25.314;2023-05-07T13:07:35;4.10;;;1.80;;
42770;SDS011;28426;42.872;25.314;2023-05-07T13:10:06;4.82;;;2.10;;
42770;SDS011;28426;42.872;25.314;2023-05-07T13:12:41;3.55;;;1.77;;
42770;SDS011;28426;42.872;25.314;2023-05-07T13:15:12;5.97;;;1.98;;
42770;SDS011;28426;42.872;25.314;2023-05-07T13:17:43;3.20;;;1.63;;
42770;SDS011;28426;42.872;25.314;2023-05-07T13:20:14;3.97;;;1.77;;
42770;SDS011;28426;42.872;25.314;2023-05-07T13:22:45;5.38;;;2.00;;
42770;SDS011;28426;42.872;25.314;2023-05-07T13:25:17;5.60;;;2.05;;
42770;SDS011;28426;42.872;25.314;2023-05-07T13:27:50;4.32;;;2.05;;
42770;SDS011;28426;42.872;25.314;2023-05-07T13:30:36;3.85;;;1.70;;
42770;SDS011;28426;42.872;25.314;2023-05-07T13:33:08;3.92;;;1.95;;
42770;SDS011;28426;42.872;25.314;2023-05-07T13:35:39;4.03;;;1.85;;
42770;SDS011;28426;42.872;25.314;2023-05-07T13:38:10;5.30;;;1.70;;
42770;SDS011;28426;42.872;25.314;2023-05-07T13:40:43;4.82;;;1.95;;
42770;SDS011;28426;42.872;25.314;2023-05-07T13:43:16;7.22;;;1.60;;
42770;SDS011;28426;42.872;25.314;2023-05-07T13:45:47;3.70;;;1.90;;
42770;SDS011;28426;42.872;25.314;2023-05-07T13:48:18;4.28;;;1.90;;
42770;SDS011;28426;42.872;25.314;2023-05-07T13:50:49;4.70;;;1.77;;
42770;SDS011;28426;42.872;25.314;2023-05-07T13:53:19;2.90;;;1.63;;
42770;SDS011;28426;42.872;25.314;2023-05-07T13:55:50;4.10;;;1.85;;
42770;SDS011;28426;42.872;25.314;2023-05-07T13:58:24;4.13;;;1.77;;
42770;SDS011;28426;42.872;25.314;2023-05-07T14:00:55;5.00;;;1.60;;
42770;SDS011;28426;42.872;25.314;2023-05-07T14:03:26;4.35;;;2.10;;
42770;SDS011;28426;42.872;25.314;2023-05-07T14:05:59;5.57;;;2.65;;
42770;SDS011;28426;42.872;25.314;2023-05-07T14:08:30;4.15;;;1.90;;
42770;SDS011;28426;42.872;25.314;2023-05-07T14:11:00;3.40;;;1.80;;
42770;SDS011;28426;42.872;25.314;2023-05-07T14:13:34;4.18;;;2.00;;
42770;SDS011;28426;42.872;25.314;2023-05-07T14:16:05;4.57;;;1.80;;
42770;SDS011;28426;42.872;25.314;2023-05-07T14:18:36;4.35;;;1.70;;
42770;SDS011;28426;42.872;25.314;2023-05-07T14:21:07;4.28;;;1.90;;
42770;SDS011;28426;42.872;25.314;2023-05-07T14:23:38;3.08;;;1.70;;
42770;SDS011;28426;42.872;25.314;2023-05-07T14:26:08;3.05;;;1.60;;
42770;SDS011;28426;42.872;25.314;2023-05-07T14:28:42;2.95;;;1.55;;
42770;SDS011;28426;42.872;25.314;2023-05-07T14:31:13;3.50;;;1.80;;
42770;SDS011;28426;42.872;25.314;2023-05-07T14:33:44;3.50;;;1.80;;
42770;SDS011;28426;42.872;25.314;2023-05-07T14:36:16;3.28;;;1.67;;
42770;SDS011;28426;42.872;25.314;2023-05-07T14:38:48;4.07;;;2.15;;
42770;SDS011;28426;42.872;25.314;2023-05-07T14:41:19;4.07;;;1.98;;
42770;SDS011;28426;42.872;25.314;2023-05-07T14:43:53;7.47;;;2.30;;
42770;SDS011;28426;42.872;25.314;2023-05-07T14:48:56;6.68;;;1.92;;
42770;SDS011;28426;42.872;25.314;2023-05-07T14:51:27;3.17;;;1.60;;
42770;SDS011;28426;42.872;25.314;2023-05-07T14:53:58;5.65;;;2.28;;
42770;SDS011;28426;42.872;25.314;2023-05-07T14:56:30;4.85;;;1.73;;
42770;SDS011;28426;42.872;25.314;2023-05-07T14:59:04;3.63;;;1.60;;
42770;SDS011;28426;42.872;25.314;2023-05-07T15:01:35;4.53;;;2.00;;
42770;SDS011;28426;42.872;25.314;2023-05-07T15:04:07;5.82;;;2.17;;
42770;SDS011;28426;42.872;25.314;2023-05-07T15:06:38;6.25;;;1.70;;
42770;SDS011;28426;42.872;25.314;2023-05-07T15:09:09;5.13;;;1.80;;
42770;SDS011;28426;42.872;25.314;2023-05-07T15:11:40;5.93;;;1.50;;
42770;SDS011;28426;42.872;25.314;2023-05-07T15:14:14;6.38;;;1.80;;
42770;SDS011;28426;42.872;25.314;2023-05-07T15:16:45;5.63;;;1.55;;
42770;SDS011;28426;42.872;25.314;2023-05-07T15:19:16;6.63;;;1.85;;
42770;SDS011;28426;42.872;25.314;2023-05-07T15:21:47;4.78;;;1.70;;
42770;SDS011;28426;42.872;25.314;2023-05-07T15:24:18;5.10;;;2.13;;
42770;SDS011;28426;42.872;25.314;2023-05-07T15:26:51;3.95;;;1.80;;